sensor_id;sensor_type;location;lat;lon;timestamp;P1;durP1;ratioP1;P2;durP2;ratioP2
55931;SDS011;41837;55.700;37.984;2023-08-06T00:01:49;45.63;;;25.58;;
55931;SDS011;41837;55.700;37.984;2023-08-06T00:04:16;51.15;;;25.77;;
55931;SDS011;41837;55.700;37.984;2023-08-06T00:06:42;50.92;;;25.58;;
55931;SDS011;41837;55.700;37.984;2023-08-06T00:09:08;47.65;;;25.00;;
55931;SDS011;41837;55.700;37.984;2023-08-06T00:11:35;54.55;;;25.52;;
55931;SDS011;41837;55.700;37.984;2023-08-06T00:14:01;46.95;;;23.73;;
55931;SDS011;41837;55.700;37.984;2023-08-06T00:16:28;47.83;;;24.13;;
55931;SDS011;41837;55.700;37.984;2023-08-06T00:18:54;47.33;;;24.27;;
55931;SDS011;41837;55.700;37.984;2023-08-06T00:21:20;54.63;;;23.80;;
55931;SDS011;41837;55.700;37.984;2023-08-06T00:23:46;50.05;;;23.25;;
55931;SDS011;41837;55.700;37.984;2023-08-06T00:26:13;47.05;;;23.05;;
55931;SDS011;41837;55.700;37.984;2023-08-06T00:28:39;43.28;;;23.00;;
55931;SDS011;41837;55.700;37.984;2023-08-06T00:31:05;44.25;;;23.73;;
55931;SDS011;41837;55.700;37.984;2023-08-06T00:33:32;45.55;;;23.80;;
55931;SDS011;41837;55.700;37.984;2023-08-06T00:35:59;48.25;;;23.58;;
55931;SDS011;41837;55.700;37.984;2023-08-06T00:38:25;55.97;;;23.38;;
55931;SDS011;41837;55.700;37.984;2023-08-06T00:40:52;57.38;;;22.83;;
55931;SDS011;41837;55.700;37.984;2023-08-06T00:43:19;55.78;;;24.10;;
55931;SDS011;41837;55.700;37.984;2023-08-06T00:45:45;45.03;;;23.17;;
55931;SDS011;41837;55.700;37.984;2023-08-06T00:48:12;52.63;;;23.77;;
55931;SDS011;41837;55.700;37.984;2023-08-06T00:50:39;49.67;;;23.55;;
55931;SDS011;41837;55.700;37.984;2023-08-06T00:53:05;49.53;;;22.33;;
55931;SDS011;41837;55.700;37.984;2023-08-06T00:55:32;60.30;;;22.17;;
55931;SDS011;41837;55.700;37.984;2023-08-06T00:57:59;46.08;;;22.80;;
55931;SDS011;41837;55.700;37.984;2023-08-06T01:00:26;51.40;;;21.02;;
55931;SDS011;41837;55.700;37.984;2023-08-06T01:02:53;50.67;;;21.98;;
55931;SDS011;41837;55.700;37.984;2023-08-06T01:05:20;54.38;;;22.63;;
55931;SDS011;41837;55.700;37.984;2023-08-06T01:13:15;56.72;;;23.65;;
55931;SDS011;41837;55.700;37.984;2023-08-06T01:15:46;48.08;;;22.90;;
55931;SDS011;41837;55.700;37.984;2023-08-06T01:18:16;49.95;;;23.45;;
55931;SDS011;41837;55.700;37.984;2023-08-06T01:20:42;54.80;;;24.35;;
55931;SDS011;41837;55.700;37.984;2023-08-06T01:23:09;54.40;;;24.38;;
55931;SDS011;41837;55.700;37.984;2023-08-06T01:31:02;42.47;;;22.73;;
55931;SDS011;41837;55.700;37.984;2023-08-06T01:33:34;47.10;;;24.15;;
55931;SDS011;41837;55.700;37.984;2023-08-06T01:36:02;43.53;;;22.48;;
55931;SDS011;41837;55.700;37.984;2023-08-06T01:38:31;55.65;;;25.17;;
55931;SDS011;41837;55.700;37.984;2023-08-06T01:40:58;57.63;;;26.13;;
55931;SDS011;41837;55.700;37.984;2023-08-06T01:43:24;49.53;;;25.80;;
55931;SDS011;41837;55.700;37.984;2023-08-06T01:45:50;57.72;;;28.08;;
55931;SDS011;41837;55.700;37.984;2023-08-06T01:48:16;56.70;;;30.30;;
55931;SDS011;41837;55.700;37.984;2023-08-06T01:50:43;54.47;;;27.92;;
55931;SDS011;41837;55.700;37.984;2023-08-06T01:53:09;49.00;;;28.13;;
55931;SDS011;41837;55.700;37.984;2023-08-06T01:55:36;60.42;;;31.67;;
55931;SDS011;41837;55.700;37.984;2023-08-06T01:58:02;64.55;;;29.83;;
55931;SDS011;41837;55.700;37.984;2023-08-06T02:00:28;65.60;;;31.80;;
55931;SDS011;41837;55.700;37.984;2023-08-06T02:02:55;52.08;;;29.33;;
55931;SDS011;41837;55.700;37.984;2023-08-06T02:05:21;58.80;;;30.67;;
55931;SDS011;41837;55.700;37.984;2023-08-06T02:07:47;53.85;;;30.08;;
55931;SDS011;41837;55.700;37.984;2023-08-06T02:10:14;53.25;;;28.63;;
55931;SDS011;41837;55.700;37.984;2023-08-06T02:12:40;47.85;;;28.00;;
55931;SDS011;41837;55.700;37.984;2023-08-06T02:15:06;58.17;;;27.80;;
55931;SDS011;41837;55.700;37.984;2023-08-06T02:17:33;49.47;;;26.15;;
55931;SDS011;41837;55.700;37.984;2023-08-06T02:20:00;47.92;;;25.08;;
55931;SDS011;41837;55.700;37.984;2023-08-06T02:22:31;52.33;;;25.95;;
55931;SDS011;41837;55.700;37.984;2023-08-06T02:24:58;58.92;;;26.80;;
55931;SDS011;41837;55.700;37.984;2023-08-06T02:27:24;40.55;;;24.73;;
55931;SDS011;41837;55.700;37.984;2023-08-06T02:29:51;45.58;;;23.40;;
55931;SDS011;41837;55.700;37.984;2023-08-06T02:32:17;51.33;;;24.05;;
55931;SDS011;41837;55.700;37.984;2023-08-06T02:34:43;54.17;;;24.38;;
55931;SDS011;41837;55.700;37.984;2023-08-06T02:37:10;48.13;;;23.15;;
55931;SDS011;41837;55.700;37.984;2023-08-06T02:39:38;44.20;;;22.00;;
55931;SDS011;41837;55.700;37.984;2023-08-06T02:42:07;50.15;;;22.00;;
55931;SDS011;41837;55.700;37.984;2023-08-06T02:44:33;57.80;;;19.60;;
55931;SDS011;41837;55.700;37.984;2023-08-06T02:47:00;59.97;;;20.08;;
55931;SDS011;41837;55.700;37.984;2023-08-06T02:49:27;68.25;;;19.50;;
55931;SDS011;41837;55.700;37.984;2023-08-06T02:51:55;62.80;;;19.08;;
55931;SDS011;41837;55.700;37.984;2023-08-06T02:54:22;50.47;;;18.23;;
55931;SDS011;41837;55.700;37.984;2023-08-06T02:56:48;51.50;;;17.88;;
55931;SDS011;41837;55.700;37.984;2023-08-06T02:59:24;47.35;;;16.88;;
55931;SDS011;41837;55.700;37.984;2023-08-06T03:02:05;57.10;;;15.88;;
55931;SDS011;41837;55.700;37.984;2023-08-06T03:04:43;56.25;;;17.15;;
55931;SDS011;41837;55.700;37.984;2023-08-06T03:07:11;60.53;;;15.60;;
55931;SDS011;41837;55.700;37.984;2023-08-06T03:09:48;45.20;;;14.80;;
55931;SDS011;41837;55.700;37.984;2023-08-06T03:12:14;37.83;;;13.10;;
55931;SDS011;41837;55.700;37.984;2023-08-06T03:14:40;42.33;;;13.65;;
55931;SDS011;41837;55.700;37.984;2023-08-06T03:17:07;35.15;;;12.07;;
55931;SDS011;41837;55.700;37.984;2023-08-06T03:19:35;43.45;;;12.48;;
55931;SDS011;41837;55.700;37.984;2023-08-06T03:22:03;35.30;;;12.35;;
55931;SDS011;41837;55.700;37.984;2023-08-06T03:24:32;37.85;;;12.73;;
55931;SDS011;41837;55.700;37.984;2023-08-06T03:26:59;34.17;;;11.98;;
55931;SDS011;41837;55.700;37.984;2023-08-06T03:29:25;31.20;;;11.02;;
55931;SDS011;41837;55.700;37.984;2023-08-06T03:31:53;40.10;;;11.30;;
55931;SDS011;41837;55.700;37.984;2023-08-06T03:34:19;32.90;;;11.18;;
55931;SDS011;41837;55.700;37.984;2023-08-06T03:36:48;33.88;;;11.55;;
55931;SDS011;41837;55.700;37.984;2023-08-06T03:39:14;37.92;;;10.80;;
55931;SDS011;41837;55.700;37.984;2023-08-06T03:41:41;31.90;;;12.02;;
55931;SDS011;41837;55.700;37.984;2023-08-06T03:44:07;30.60;;;10.98;;
55931;SDS011;41837;55.700;37.984;2023-08-06T03:46:34;35.75;;;10.85;;
55931;SDS011;41837;55.700;37.984;2023-08-06T03:49:03;24.63;;;10.20;;
55931;SDS011;41837;55.700;37.984;2023-08-06T03:51:30;33.00;;;10.45;;
55931;SDS011;41837;55.700;37.984;2023-08-06T03:53:56;25.33;;;11.15;;
55931;SDS011;41837;55.700;37.984;2023-08-06T03:56:23;32.15;;;12.80;;
55931;SDS011;41837;55.700;37.984;2023-08-06T03:58:49;41.90;;;19.27;;
55931;SDS011;41837;55.700;37.984;2023-08-06T04:01:16;25.90;;;14.20;;
55931;SDS011;41837;55.700;37.984;2023-08-06T04:03:45;47.60;;;22.25;;
55931;SDS011;41837;55.700;37.984;2023-08-06T04:06:12;41.58;;;17.63;;
55931;SDS011;41837;55.700;37.984;2023-08-06T04:08:38;42.13;;;20.15;;
55931;SDS011;41837;55.700;37.984;2023-08-06T04:11:04;30.42;;;11.52;;
55931;SDS011;41837;55.700;37.984;2023-08-06T04:13:31;32.83;;;15.02;;
55931;SDS011;41837;55.700;37.984;2023-08-06T04:16:01;20.00;;;10.38;;
55931;SDS011;41837;55.700;37.984;2023-08-06T04:18:29;38.80;;;21.10;;
55931;SDS011;41837;55.700;37.984;2023-08-06T04:20:55;47.80;;;21.88;;
55931;SDS011;41837;55.700;37.984;2023-08-06T04:23:23;36.35;;;13.65;;
55931;SDS011;41837;55.700;37.984;2023-08-06T04:25:56;31.25;;;16.50;;
55931;SDS011;41837;55.700;37.984;2023-08-06T04:28:25;20.33;;;10.48;;
55931;SDS011;41837;55.700;37.984;2023-08-06T04:30:53;24.83;;;12.18;;
55931;SDS011;41837;55.700;37.984;2023-08-06T04:33:20;20.10;;;9.70;;
55931;SDS011;41837;55.700;37.984;2023-08-06T04:35:47;20.45;;;10.23;;
55931;SDS011;41837;55.700;37.984;2023-08-06T04:38:19;15.98;;;9.00;;
55931;SDS011;41837;55.700;37.984;2023-08-06T04:40:45;16.33;;;8.20;;
55931;SDS011;41837;55.700;37.984;2023-08-06T04:43:11;21.20;;;9.35;;
55931;SDS011;41837;55.700;37.984;2023-08-06T04:45:38;19.85;;;8.10;;
55931;SDS011;41837;55.700;37.984;2023-08-06T04:48:11;14.18;;;7.55;;
55931;SDS011;41837;55.700;37.984;2023-08-06T04:50:37;15.07;;;8.05;;
55931;SDS011;41837;55.700;37.984;2023-08-06T04:53:03;14.60;;;7.40;;
55931;SDS011;41837;55.700;37.984;2023-08-06T04:55:30;15.18;;;7.75;;
55931;SDS011;41837;55.700;37.984;2023-08-06T04:57:56;15.32;;;7.40;;
55931;SDS011;41837;55.700;37.984;2023-08-06T05:00:22;15.48;;;7.28;;
55931;SDS011;41837;55.700;37.984;2023-08-06T05:02:48;13.02;;;7.40;;
55931;SDS011;41837;55.700;37.984;2023-08-06T05:05:14;11.68;;;7.78;;
55931;SDS011;41837;55.700;37.984;2023-08-06T05:07:41;12.68;;;8.05;;
55931;SDS011;41837;55.700;37.984;2023-08-06T05:10:07;21.48;;;10.35;;
55931;SDS011;41837;55.700;37.984;2023-08-06T05:12:34;15.50;;;8.35;;
55931;SDS011;41837;55.700;37.984;2023-08-06T05:15:00;13.65;;;8.25;;
55931;SDS011;41837;55.700;37.984;2023-08-06T05:17:26;20.60;;;9.10;;
55931;SDS011;41837;55.700;37.984;2023-08-06T05:19:52;15.32;;;9.30;;
55931;SDS011;41837;55.700;37.984;2023-08-06T05:22:18;23.10;;;11.00;;
55931;SDS011;41837;55.700;37.984;2023-08-06T05:24:45;25.58;;;10.90;;
55931;SDS011;41837;55.700;37.984;2023-08-06T05:27:11;21.23;;;11.48;;
55931;SDS011;41837;55.700;37.984;2023-08-06T05:29:38;26.70;;;12.27;;
55931;SDS011;41837;55.700;37.984;2023-08-06T05:32:04;22.88;;;10.32;;
55931;SDS011;41837;55.700;37.984;2023-08-06T05:34:31;16.10;;;9.07;;
55931;SDS011;41837;55.700;37.984;2023-08-06T05:36:57;21.77;;;10.50;;
55931;SDS011;41837;55.700;37.984;2023-08-06T05:39:24;11.80;;;6.60;;
55931;SDS011;41837;55.700;37.984;2023-08-06T05:41:50;11.70;;;6.18;;
55931;SDS011;41837;55.700;37.984;2023-08-06T05:44:18;16.70;;;8.10;;
55931;SDS011;41837;55.700;37.984;2023-08-06T05:46:43;16.88;;;7.53;;
55931;SDS011;41837;55.700;37.984;2023-08-06T05:49:09;15.50;;;8.07;;
55931;SDS011;41837;55.700;37.984;2023-08-06T05:51:38;11.60;;;6.72;;
55931;SDS011;41837;55.700;37.984;2023-08-06T05:54:05;17.02;;;7.63;;
55931;SDS011;41837;55.700;37.984;2023-08-06T05:56:31;27.52;;;11.75;;
55931;SDS011;41837;55.700;37.984;2023-08-06T05:58:57;10.85;;;6.72;;
55931;SDS011;41837;55.700;37.984;2023-08-06T06:01:24;13.10;;;5.97;;
55931;SDS011;41837;55.700;37.984;2023-08-06T06:03:50;15.63;;;7.10;;
55931;SDS011;41837;55.700;37.984;2023-08-06T06:06:17;12.85;;;7.28;;
55931;SDS011;41837;55.700;37.984;2023-08-06T06:08:44;11.05;;;5.85;;
55931;SDS011;41837;55.700;37.984;2023-08-06T06:11:11;18.02;;;6.40;;
55931;SDS011;41837;55.700;37.984;2023-08-06T06:13:37;16.45;;;6.40;;
55931;SDS011;41837;55.700;37.984;2023-08-06T06:16:03;13.82;;;5.50;;
55931;SDS011;41837;55.700;37.984;2023-08-06T06:18:30;19.02;;;6.22;;
55931;SDS011;41837;55.700;37.984;2023-08-06T06:20:57;9.35;;;5.30;;
55931;SDS011;41837;55.700;37.984;2023-08-06T06:23:24;13.70;;;6.32;;
55931;SDS011;41837;55.700;37.984;2023-08-06T06:25:50;11.60;;;6.07;;
55931;SDS011;41837;55.700;37.984;2023-08-06T06:28:19;16.77;;;5.53;;
55931;SDS011;41837;55.700;37.984;2023-08-06T06:30:47;16.17;;;6.15;;
55931;SDS011;41837;55.700;37.984;2023-08-06T06:33:13;18.60;;;6.22;;
55931;SDS011;41837;55.700;37.984;2023-08-06T06:35:40;10.30;;;5.40;;
55931;SDS011;41837;55.700;37.984;2023-08-06T06:38:06;13.60;;;5.25;;
55931;SDS011;41837;55.700;37.984;2023-08-06T06:40:32;11.57;;;7.75;;
55931;SDS011;41837;55.700;37.984;2023-08-06T06:42:59;6.18;;;5.35;;
55931;SDS011;41837;55.700;37.984;2023-08-06T06:45:26;15.73;;;7.03;;
55931;SDS011;41837;55.700;37.984;2023-08-06T06:47:52;11.68;;;6.25;;
55931;SDS011;41837;55.700;37.984;2023-08-06T06:50:18;11.55;;;5.78;;
55931;SDS011;41837;55.700;37.984;2023-08-06T06:52:44;14.60;;;6.93;;
55931;SDS011;41837;55.700;37.984;2023-08-06T06:55:10;17.75;;;7.25;;
55931;SDS011;41837;55.700;37.984;2023-08-06T06:57:37;11.82;;;5.93;;
55931;SDS011;41837;55.700;37.984;2023-08-06T07:00:03;10.32;;;5.45;;
55931;SDS011;41837;55.700;37.984;2023-08-06T07:02:31;10.18;;;5.40;;
55931;SDS011;41837;55.700;37.984;2023-08-06T07:04:57;12.43;;;5.30;;
55931;SDS011;41837;55.700;37.984;2023-08-06T07:07:23;16.48;;;5.82;;
55931;SDS011;41837;55.700;37.984;2023-08-06T07:09:49;8.93;;;4.32;;
55931;SDS011;41837;55.700;37.984;2023-08-06T07:12:16;10.93;;;4.70;;
55931;SDS011;41837;55.700;37.984;2023-08-06T07:14:42;14.10;;;5.95;;
55931;SDS011;41837;55.700;37.984;2023-08-06T07:17:09;7.05;;;4.93;;
55931;SDS011;41837;55.700;37.984;2023-08-06T07:19:35;7.03;;;4.40;;
55931;SDS011;41837;55.700;37.984;2023-08-06T07:22:01;7.93;;;4.50;;
55931;SDS011;41837;55.700;37.984;2023-08-06T07:24:27;11.80;;;4.57;;
55931;SDS011;41837;55.700;37.984;2023-08-06T07:26:53;9.95;;;4.70;;
55931;SDS011;41837;55.700;37.984;2023-08-06T07:29:20;11.60;;;4.93;;
55931;SDS011;41837;55.700;37.984;2023-08-06T07:31:47;12.93;;;4.65;;
55931;SDS011;41837;55.700;37.984;2023-08-06T07:34:15;9.05;;;4.63;;
55931;SDS011;41837;55.700;37.984;2023-08-06T07:36:43;6.32;;;4.30;;
55931;SDS011;41837;55.700;37.984;2023-08-06T07:39:11;7.78;;;4.40;;
55931;SDS011;41837;55.700;37.984;2023-08-06T07:41:38;8.48;;;4.18;;
55931;SDS011;41837;55.700;37.984;2023-08-06T07:44:05;7.07;;;4.22;;
55931;SDS011;41837;55.700;37.984;2023-08-06T07:46:31;8.43;;;4.40;;
55931;SDS011;41837;55.700;37.984;2023-08-06T07:48:58;13.32;;;5.38;;
55931;SDS011;41837;55.700;37.984;2023-08-06T07:51:25;11.45;;;5.05;;
55931;SDS011;41837;55.700;37.984;2023-08-06T07:53:51;8.90;;;4.63;;
55931;SDS011;41837;55.700;37.984;2023-08-06T07:56:17;14.98;;;5.28;;
55931;SDS011;41837;55.700;37.984;2023-08-06T07:58:44;4.68;;;3.45;;
55931;SDS011;41837;55.700;37.984;2023-08-06T08:01:10;7.07;;;3.42;;
55931;SDS011;41837;55.700;37.984;2023-08-06T08:03:37;7.13;;;3.42;;
55931;SDS011;41837;55.700;37.984;2023-08-06T08:06:03;10.13;;;3.60;;
55931;SDS011;41837;55.700;37.984;2023-08-06T08:08:30;7.45;;;3.75;;
55931;SDS011;41837;55.700;37.984;2023-08-06T08:10:56;10.82;;;4.90;;
55931;SDS011;41837;55.700;37.984;2023-08-06T08:13:25;8.77;;;3.95;;
55931;SDS011;41837;55.700;37.984;2023-08-06T08:15:56;4.75;;;3.47;;
55931;SDS011;41837;55.700;37.984;2023-08-06T08:18:27;6.30;;;4.03;;
55931;SDS011;41837;55.700;37.984;2023-08-06T08:20:54;5.25;;;3.60;;
55931;SDS011;41837;55.700;37.984;2023-08-06T08:23:20;11.90;;;3.90;;
55931;SDS011;41837;55.700;37.984;2023-08-06T08:25:47;7.68;;;3.58;;
55931;SDS011;41837;55.700;37.984;2023-08-06T08:28:13;9.60;;;4.28;;
55931;SDS011;41837;55.700;37.984;2023-08-06T08:30:41;7.18;;;3.75;;
55931;SDS011;41837;55.700;37.984;2023-08-06T08:33:07;7.35;;;4.72;;
55931;SDS011;41837;55.700;37.984;2023-08-06T08:35:34;10.48;;;4.05;;
55931;SDS011;41837;55.700;37.984;2023-08-06T08:38:00;9.07;;;3.75;;
55931;SDS011;41837;55.700;37.984;2023-08-06T08:40:29;9.98;;;3.50;;
55931;SDS011;41837;55.700;37.984;2023-08-06T08:42:59;7.57;;;3.90;;
55931;SDS011;41837;55.700;37.984;2023-08-06T08:45:26;6.45;;;3.90;;
55931;SDS011;41837;55.700;37.984;2023-08-06T08:47:55;6.50;;;3.55;;
55931;SDS011;41837;55.700;37.984;2023-08-06T08:50:23;5.32;;;3.63;;
55931;SDS011;41837;55.700;37.984;2023-08-06T08:52:50;7.05;;;3.35;;
55931;SDS011;41837;55.700;37.984;2023-08-06T08:55:17;12.45;;;4.28;;
55931;SDS011;41837;55.700;37.984;2023-08-06T08:57:45;7.45;;;4.00;;
55931;SDS011;41837;55.700;37.984;2023-08-06T09:00:11;8.77;;;5.28;;
55931;SDS011;41837;55.700;37.984;2023-08-06T09:02:37;8.45;;;4.93;;
55931;SDS011;41837;55.700;37.984;2023-08-06T09:05:06;10.27;;;4.63;;
55931;SDS011;41837;55.700;37.984;2023-08-06T09:07:41;10.05;;;4.50;;
55931;SDS011;41837;55.700;37.984;2023-08-06T09:10:12;8.43;;;3.63;;
55931;SDS011;41837;55.700;37.984;2023-08-06T09:12:43;11.23;;;4.50;;
55931;SDS011;41837;55.700;37.984;2023-08-06T09:15:10;5.68;;;4.20;;
55931;SDS011;41837;55.700;37.984;2023-08-06T09:17:37;9.23;;;3.65;;
55931;SDS011;41837;55.700;37.984;2023-08-06T09:20:10;6.28;;;3.92;;
55931;SDS011;41837;55.700;37.984;2023-08-06T09:22:40;7.15;;;3.90;;
55931;SDS011;41837;55.700;37.984;2023-08-06T09:25:07;8.00;;;4.10;;
55931;SDS011;41837;55.700;37.984;2023-08-06T09:27:37;18.80;;;5.40;;
55931;SDS011;41837;55.700;37.984;2023-08-06T09:30:04;6.07;;;4.25;;
55931;SDS011;41837;55.700;37.984;2023-08-06T09:32:45;5.43;;;4.25;;
55931;SDS011;41837;55.700;37.984;2023-08-06T09:35:19;8.15;;;4.05;;
55931;SDS011;41837;55.700;37.984;2023-08-06T09:37:45;12.35;;;4.15;;
55931;SDS011;41837;55.700;37.984;2023-08-06T09:40:25;6.22;;;3.97;;
55931;SDS011;41837;55.700;37.984;2023-08-06T09:42:52;8.40;;;3.65;;
55931;SDS011;41837;55.700;37.984;2023-08-06T09:45:19;11.70;;;3.95;;
55931;SDS011;41837;55.700;37.984;2023-08-06T09:47:50;6.30;;;3.55;;
55931;SDS011;41837;55.700;37.984;2023-08-06T09:50:21;8.88;;;3.60;;
55931;SDS011;41837;55.700;37.984;2023-08-06T09:52:48;7.72;;;3.72;;
55931;SDS011;41837;55.700;37.984;2023-08-06T09:55:18;5.60;;;3.65;;
55931;SDS011;41837;55.700;37.984;2023-08-06T09:57:45;8.25;;;4.28;;
55931;SDS011;41837;55.700;37.984;2023-08-06T10:00:13;9.02;;;3.95;;
55931;SDS011;41837;55.700;37.984;2023-08-06T10:02:40;7.93;;;4.07;;
55931;SDS011;41837;55.700;37.984;2023-08-06T10:05:07;7.40;;;3.70;;
55931;SDS011;41837;55.700;37.984;2023-08-06T10:07:34;9.45;;;4.32;;
55931;SDS011;41837;55.700;37.984;2023-08-06T10:10:00;14.50;;;4.65;;
55931;SDS011;41837;55.700;37.984;2023-08-06T10:12:31;7.05;;;4.28;;
55931;SDS011;41837;55.700;37.984;2023-08-06T10:15:02;12.02;;;4.22;;
55931;SDS011;41837;55.700;37.984;2023-08-06T10:17:40;8.50;;;4.63;;
55931;SDS011;41837;55.700;37.984;2023-08-06T10:20:09;9.40;;;4.28;;
55931;SDS011;41837;55.700;37.984;2023-08-06T10:22:37;16.00;;;4.30;;
55931;SDS011;41837;55.700;37.984;2023-08-06T10:27:54;9.10;;;3.97;;
55931;SDS011;41837;55.700;37.984;2023-08-06T10:30:31;8.43;;;4.15;;
55931;SDS011;41837;55.700;37.984;2023-08-06T10:32:59;8.43;;;4.32;;
55931;SDS011;41837;55.700;37.984;2023-08-06T10:35:29;13.57;;;4.10;;
55931;SDS011;41837;55.700;37.984;2023-08-06T10:37:59;8.90;;;4.35;;
55931;SDS011;41837;55.700;37.984;2023-08-06T10:40:32;7.35;;;4.32;;
55931;SDS011;41837;55.700;37.984;2023-08-06T10:42:59;11.57;;;4.45;;
55931;SDS011;41837;55.700;37.984;2023-08-06T10:45:27;12.85;;;4.68;;
55931;SDS011;41837;55.700;37.984;2023-08-06T10:47:55;9.60;;;4.45;;
55931;SDS011;41837;55.700;37.984;2023-08-06T10:50:23;8.20;;;4.15;;
55931;SDS011;41837;55.700;37.984;2023-08-06T10:52:49;12.77;;;5.13;;
55931;SDS011;41837;55.700;37.984;2023-08-06T10:55:26;8.85;;;4.10;;
55931;SDS011;41837;55.700;37.984;2023-08-06T10:57:55;9.10;;;4.68;;
55931;SDS011;41837;55.700;37.984;2023-08-06T11:00:23;12.82;;;4.35;;
55931;SDS011;41837;55.700;37.984;2023-08-06T11:02:51;6.15;;;4.30;;
55931;SDS011;41837;55.700;37.984;2023-08-06T11:05:18;9.02;;;4.25;;
55931;SDS011;41837;55.700;37.984;2023-08-06T11:07:44;10.20;;;4.38;;
55931;SDS011;41837;55.700;37.984;2023-08-06T11:10:12;10.80;;;4.43;;
55931;SDS011;41837;55.700;37.984;2023-08-06T11:12:39;10.98;;;4.55;;
55931;SDS011;41837;55.700;37.984;2023-08-06T11:15:06;7.72;;;4.05;;
55931;SDS011;41837;55.700;37.984;2023-08-06T11:17:33;11.10;;;4.88;;
55931;SDS011;41837;55.700;37.984;2023-08-06T11:20:02;21.00;;;6.18;;
55931;SDS011;41837;55.700;37.984;2023-08-06T11:22:33;17.88;;;6.43;;
55931;SDS011;41837;55.700;37.984;2023-08-06T11:24:59;10.95;;;6.35;;
55931;SDS011;41837;55.700;37.984;2023-08-06T11:27:30;9.02;;;4.00;;
55931;SDS011;41837;55.700;37.984;2023-08-06T11:29:57;7.45;;;4.18;;
55931;SDS011;41837;55.700;37.984;2023-08-06T11:32:24;9.00;;;4.25;;
55931;SDS011;41837;55.700;37.984;2023-08-06T11:34:50;8.15;;;3.90;;
55931;SDS011;41837;55.700;37.984;2023-08-06T11:37:20;7.82;;;4.25;;
55931;SDS011;41837;55.700;37.984;2023-08-06T11:39:49;6.57;;;3.95;;
55931;SDS011;41837;55.700;37.984;2023-08-06T11:42:16;9.20;;;4.38;;
55931;SDS011;41837;55.700;37.984;2023-08-06T11:44:42;12.95;;;4.35;;
55931;SDS011;41837;55.700;37.984;2023-08-06T11:47:15;13.15;;;3.95;;
55931;SDS011;41837;55.700;37.984;2023-08-06T11:49:47;7.18;;;3.80;;
55931;SDS011;41837;55.700;37.984;2023-08-06T11:54:46;7.75;;;3.92;;
55931;SDS011;41837;55.700;37.984;2023-08-06T11:57:36;10.50;;;4.47;;
55931;SDS011;41837;55.700;37.984;2023-08-06T12:00:04;5.70;;;4.00;;
55931;SDS011;41837;55.700;37.984;2023-08-06T12:02:43;9.40;;;4.78;;
55931;SDS011;41837;55.700;37.984;2023-08-06T12:05:14;14.23;;;5.45;;
55931;SDS011;41837;55.700;37.984;2023-08-06T12:07:43;6.07;;;4.15;;
55931;SDS011;41837;55.700;37.984;2023-08-06T12:10:11;11.10;;;5.30;;
55931;SDS011;41837;55.700;37.984;2023-08-06T12:12:38;7.78;;;4.03;;
55931;SDS011;41837;55.700;37.984;2023-08-06T12:15:05;6.55;;;4.07;;
55931;SDS011;41837;55.700;37.984;2023-08-06T12:17:32;8.57;;;4.95;;
55931;SDS011;41837;55.700;37.984;2023-08-06T12:19:59;7.20;;;4.50;;
55931;SDS011;41837;55.700;37.984;2023-08-06T12:22:27;7.72;;;4.15;;
55931;SDS011;41837;55.700;37.984;2023-08-06T12:24:54;6.22;;;3.83;;
55931;SDS011;41837;55.700;37.984;2023-08-06T12:27:20;7.68;;;4.03;;
55931;SDS011;41837;55.700;37.984;2023-08-06T12:29:47;9.75;;;4.85;;
55931;SDS011;41837;55.700;37.984;2023-08-06T12:32:14;13.82;;;5.38;;
55931;SDS011;41837;55.700;37.984;2023-08-06T12:34:41;10.80;;;4.93;;
55931;SDS011;41837;55.700;37.984;2023-08-06T12:37:08;8.98;;;4.05;;
55931;SDS011;41837;55.700;37.984;2023-08-06T12:39:35;18.38;;;6.45;;
55931;SDS011;41837;55.700;37.984;2023-08-06T12:42:03;8.77;;;4.95;;
55931;SDS011;41837;55.700;37.984;2023-08-06T12:44:31;10.00;;;5.30;;
55931;SDS011;41837;55.700;37.984;2023-08-06T12:46:57;17.33;;;6.95;;
55931;SDS011;41837;55.700;37.984;2023-08-06T12:49:27;8.55;;;4.80;;
55931;SDS011;41837;55.700;37.984;2023-08-06T12:51:55;14.45;;;5.18;;
55931;SDS011;41837;55.700;37.984;2023-08-06T12:54:22;14.82;;;6.13;;
55931;SDS011;41837;55.700;37.984;2023-08-06T12:56:49;8.20;;;4.47;;
55931;SDS011;41837;55.700;37.984;2023-08-06T12:59:16;13.55;;;5.22;;
55931;SDS011;41837;55.700;37.984;2023-08-06T13:01:44;11.32;;;5.10;;
55931;SDS011;41837;55.700;37.984;2023-08-06T13:04:11;9.85;;;5.47;;
55931;SDS011;41837;55.700;37.984;2023-08-06T13:06:38;7.65;;;4.70;;
55931;SDS011;41837;55.700;37.984;2023-08-06T13:09:05;11.35;;;5.50;;
55931;SDS011;41837;55.700;37.984;2023-08-06T13:11:38;13.18;;;5.68;;
55931;SDS011;41837;55.700;37.984;2023-08-06T13:14:09;8.02;;;4.60;;
55931;SDS011;41837;55.700;37.984;2023-08-06T13:16:37;8.93;;;5.13;;
55931;SDS011;41837;55.700;37.984;2023-08-06T13:19:05;8.57;;;5.32;;
55931;SDS011;41837;55.700;37.984;2023-08-06T13:21:57;12.05;;;5.70;;
55931;SDS011;41837;55.700;37.984;2023-08-06T13:26:52;10.90;;;4.75;;
55931;SDS011;41837;55.700;37.984;2023-08-06T13:29:19;13.07;;;5.43;;
55931;SDS011;41837;55.700;37.984;2023-08-06T13:31:46;8.38;;;4.38;;
55931;SDS011;41837;55.700;37.984;2023-08-06T13:34:12;10.90;;;4.75;;
55931;SDS011;41837;55.700;37.984;2023-08-06T13:36:38;8.88;;;5.07;;
55931;SDS011;41837;55.700;37.984;2023-08-06T13:39:04;15.63;;;5.53;;
55931;SDS011;41837;55.700;37.984;2023-08-06T13:41:31;11.70;;;4.57;;
55931;SDS011;41837;55.700;37.984;2023-08-06T13:43:57;23.27;;;5.85;;
55931;SDS011;41837;55.700;37.984;2023-08-06T13:46:23;20.27;;;7.57;;
55931;SDS011;41837;55.700;37.984;2023-08-06T13:48:49;18.67;;;6.68;;
55931;SDS011;41837;55.700;37.984;2023-08-06T13:51:19;35.65;;;8.70;;
55931;SDS011;41837;55.700;37.984;2023-08-06T13:53:45;27.33;;;8.02;;
55931;SDS011;41837;55.700;37.984;2023-08-06T13:56:11;12.60;;;5.30;;
55931;SDS011;41837;55.700;37.984;2023-08-06T13:58:38;15.50;;;5.57;;
55931;SDS011;41837;55.700;37.984;2023-08-06T14:01:05;34.72;;;9.98;;
55931;SDS011;41837;55.700;37.984;2023-08-06T14:03:31;12.45;;;4.90;;
55931;SDS011;41837;55.700;37.984;2023-08-06T14:05:58;69.57;;;11.80;;
55931;SDS011;41837;55.700;37.984;2023-08-06T14:08:24;29.50;;;9.75;;
55931;SDS011;41837;55.700;37.984;2023-08-06T14:10:51;9.35;;;4.97;;
55931;SDS011;41837;55.700;37.984;2023-08-06T14:13:18;11.38;;;5.05;;
55931;SDS011;41837;55.700;37.984;2023-08-06T14:15:45;14.15;;;6.07;;
55931;SDS011;41837;55.700;37.984;2023-08-06T14:18:15;15.15;;;7.60;;
55931;SDS011;41837;55.700;37.984;2023-08-06T14:20:42;13.73;;;7.28;;
55931;SDS011;41837;55.700;37.984;2023-08-06T14:23:09;13.18;;;5.60;;
55931;SDS011;41837;55.700;37.984;2023-08-06T14:25:37;14.00;;;6.03;;
55931;SDS011;41837;55.700;37.984;2023-08-06T14:28:04;17.10;;;5.45;;
55931;SDS011;41837;55.700;37.984;2023-08-06T14:30:32;13.50;;;6.55;;
55931;SDS011;41837;55.700;37.984;2023-08-06T14:32:59;7.30;;;4.45;;
55931;SDS011;41837;55.700;37.984;2023-08-06T14:35:26;16.00;;;5.53;;
55931;SDS011;41837;55.700;37.984;2023-08-06T14:37:52;10.88;;;6.00;;
55931;SDS011;41837;55.700;37.984;2023-08-06T14:40:19;11.50;;;6.32;;
55931;SDS011;41837;55.700;37.984;2023-08-06T14:42:45;13.32;;;6.65;;